createdAt,value
2022-09-20T00:01:29.808Z,100791.00
2022-09-20T00:03:58.447Z,100795.97
2022-09-20T00:06:28.214Z,100789.56
2022-09-20T00:08:56.861Z,100799.28
2022-09-20T00:11:28.887Z,100801.91
2022-09-20T00:13:57.553Z,100808.19
2022-09-20T00:16:27.085Z,100810.06
2022-09-20T00:18:56.182Z,100800.53
2022-09-20T00:21:28.932Z,100788.97
2022-09-20T00:23:57.772Z,100780.50
2022-09-20T00:26:28.734Z,100779.16
2022-09-20T00:28:57.531Z,100785.50
2022-09-20T00:31:25.155Z,100789.56
2022-09-20T00:34:15.747Z,100774.16
2022-09-20T00:36:43.796Z,100774.69
2022-09-20T00:39:12.933Z,100774.38
2022-09-20T00:41:40.797Z,100766.94
2022-09-20T00:44:47.810Z,100765.91
2022-09-20T00:47:37.336Z,100758.31
2022-09-20T00:50:15.329Z,100762.94
2022-09-20T00:52:44.245Z,100763.09
2022-09-20T00:55:11.777Z,100761.41
2022-09-20T00:57:40.038Z,100755.31
2022-09-20T01:00:11.207Z,100750.88
2022-09-20T01:02:42.531Z,100745.13
2022-09-20T01:05:10.206Z,100750.91
2022-09-20T01:07:38.405Z,100747.38
2022-09-20T01:10:06.547Z,100754.16
2022-09-20T01:12:35.532Z,100750.25
2022-09-20T01:15:04.466Z,100750.63
2022-09-20T01:17:32.996Z,100748.59
2022-09-20T01:20:18.999Z,100749.97
2022-09-20T01:22:52.533Z,100749.59
2022-09-20T01:25:47.794Z,100758.47
2022-09-20T01:28:15.727Z,100749.97
2022-09-20T01:30:59.626Z,100756.59
2022-09-20T01:34:09.772Z,100753.03
2022-09-20T01:36:50.538Z,100747.25
2022-09-20T01:39:31.969Z,100737.06
2022-09-20T01:42:02.531Z,100743.19
2022-09-20T01:44:38.938Z,100739.44
2022-09-20T01:47:29.501Z,100733.00
2022-09-20T01:50:46.360Z,100730.94
2022-09-20T01:53:25.673Z,100734.84
2022-09-20T01:56:00.886Z,100728.56
2022-09-20T01:59:06.944Z,100729.44
2022-09-20T02:02:00.938Z,100725.69
2022-09-20T02:04:38.489Z,100720.75
2022-09-20T02:07:27.519Z,100716.69
2022-09-20T02:09:55.031Z,100727.38
2022-09-20T02:12:33.799Z,100726.03
2022-09-20T02:15:25.963Z,100726.53
2022-09-20T02:18:02.743Z,100727.91
2022-09-20T02:20:33.459Z,100718.38
2022-09-20T02:23:26.070Z,100719.69
2022-09-20T02:26:09.253Z,100713.94
2022-09-20T02:28:52.455Z,100709.00
2022-09-20T02:31:27.443Z,100708.47
2022-09-20T02:34:04.103Z,100718.66
2022-09-20T02:36:37.030Z,100719.16
2022-09-20T02:39:17.135Z,100724.09
2022-09-20T02:41:47.690Z,100716.25
2022-09-20T02:44:54.759Z,100710.28
2022-09-20T02:47:33.263Z,100707.56
2022-09-20T02:50:45.668Z,100719.13
2022-09-20T02:53:37.590Z,100715.19
2022-09-20T02:56:08.997Z,100717.38
2022-09-20T02:58:45.481Z,100718.25
2022-09-20T03:01:32.918Z,100722.13
2022-09-20T03:04:39.303Z,100725.50
2022-09-20T03:07:26.744Z,100726.66
2022-09-20T03:10:32.210Z,100733.44
2022-09-20T03:13:22.709Z,100734.97
2022-09-20T03:15:55.960Z,100730.53
2022-09-20T03:18:32.237Z,100726.78
2022-09-20T03:21:27.485Z,100720.03
2022-09-20T03:24:19.890Z,100731.72
2022-09-20T03:26:51.483Z,100735.16
2022-09-20T03:29:37.629Z,100730.06
2022-09-20T03:32:13.660Z,100722.38
2022-09-20T03:34:56.578Z,100716.91
2022-09-20T03:37:41.115Z,100722.56
2022-09-20T03:40:27.838Z,100732.75
2022-09-20T03:42:55.543Z,100723.88
2022-09-20T03:45:52.566Z,100720.81
2022-09-20T03:48:57.307Z,100716.88
2022-09-20T03:51:58.755Z,100731.53
2022-09-20T03:55:04.324Z,100731.31
2022-09-20T03:57:41.127Z,100730.25
2022-09-20T04:00:14.959Z,100730.53
2022-09-20T04:03:00.685Z,100729.00
2022-09-20T04:05:57.847Z,100743.09
2022-09-20T04:09:02.270Z,100732.91
2022-09-20T04:11:55.256Z,100734.91
2022-09-20T04:14:43.405Z,100744.06
2022-09-20T04:17:17.083Z,100733.28
2022-09-20T04:19:47.935Z,100721.84
2022-09-20T04:22:16.387Z,100721.47
2022-09-20T04:25:20.523Z,100719.59
2022-09-20T04:27:54.076Z,100721.41
2022-09-20T04:30:28.019Z,100728.88
2022-09-20T04:33:28.801Z,100730.78
2022-09-20T04:36:29.130Z,100732.81
2022-09-20T04:39:25.728Z,100733.75
2022-09-20T04:42:15.484Z,100735.19
2022-09-20T04:45:03.514Z,100730.97
2022-09-20T04:47:50.158Z,100735.81
2022-09-20T04:50:35.290Z,100738.53
2022-09-20T04:53:07.085Z,100747.09
2022-09-20T04:55:56.255Z,100736.56
2022-09-20T04:58:48.372Z,100738.63
2022-09-20T05:01:45.365Z,100745.16
2022-09-20T05:04:42.017Z,100751.19
2022-09-20T05:07:12.619Z,100747.88
2022-09-20T05:10:05.136Z,100741.63
2022-09-20T05:12:38.715Z,100731.38
2022-09-20T05:15:24.824Z,100717.72
2022-09-20T05:18:11.185Z,100734.53
2022-09-20T05:20:50.973Z,100736.69
2022-09-20T05:23:52.039Z,100728.69
2022-09-20T05:26:56.978Z,100715.69
2022-09-20T05:30:08.970Z,100713.69
2022-09-20T05:32:52.295Z,100721.56
2022-09-20T05:35:30.703Z,100725.22
2022-09-20T05:38:18.892Z,100725.31
2022-09-20T05:41:00.113Z,100718.78
2022-09-20T05:43:35.422Z,100711.91
2022-09-20T05:46:16.057Z,100715.19
2022-09-20T05:48:53.577Z,100716.50
2022-09-20T05:51:39.464Z,100715.91
2022-09-20T05:54:48.415Z,100713.69
2022-09-20T05:57:51.064Z,100714.84
2022-09-20T06:00:20.151Z,100716.47
2022-09-20T06:02:59.669Z,100718.28
2022-09-20T06:05:46.926Z,100717.31
2022-09-20T06:08:21.078Z,100719.63
2022-09-20T06:11:00.431Z,100722.88
2022-09-20T06:13:50.494Z,100725.59
2022-09-20T06:16:25.774Z,100731.66
2022-09-20T06:19:12.092Z,100725.72
2022-09-20T06:21:56.713Z,100728.66
2022-09-20T06:24:45.415Z,100734.63
2022-09-20T06:27:16.066Z,100730.41
2022-09-20T06:29:46.020Z,100732.84
2022-09-20T06:32:17.260Z,100727.38
2022-09-20T06:34:45.319Z,100731.47
2022-09-20T06:37:54.732Z,100725.19
2022-09-20T06:41:01.586Z,100728.09
2022-09-20T06:43:31.127Z,100712.13
2022-09-20T06:45:58.905Z,100705.88
2022-09-20T06:48:26.513Z,100707.22
2022-09-20T06:50:54.179Z,100706.41
2022-09-20T06:53:30.325Z,100705.59
2022-09-20T06:55:58.050Z,100703.88
2022-09-20T06:58:26.431Z,100717.19
2022-09-20T07:00:54.195Z,100700.75
2022-09-20T07:03:21.773Z,100710.53
2022-09-20T07:05:50.229Z,100717.31
2022-09-20T07:08:17.855Z,100706.72
2022-09-20T07:10:46.696Z,100720.97
2022-09-20T07:13:14.391Z,100719.03
2022-09-20T07:15:42.386Z,100726.72
2022-09-20T07:18:10.159Z,100717.22
2022-09-20T07:20:38.062Z,100722.75
2022-09-20T07:23:05.709Z,100713.47
2022-09-20T07:25:34.779Z,100707.66
2022-09-20T07:28:02.512Z,100699.69
2022-09-20T07:30:30.181Z,100695.53
2022-09-20T07:32:57.748Z,100694.22
2022-09-20T07:35:25.798Z,100687.81
2022-09-20T07:37:58.004Z,100686.16
2022-09-20T07:40:27.020Z,100676.63
2022-09-20T07:42:57.163Z,100680.44
2022-09-20T07:45:24.758Z,100676.47
2022-09-20T07:47:53.793Z,100678.22
2022-09-20T07:50:22.281Z,100683.28
2022-09-20T07:52:52.477Z,100680.38
2022-09-20T07:55:20.149Z,100693.25
2022-09-20T07:57:47.911Z,100685.03
2022-09-20T08:00:16.148Z,100674.72
2022-09-20T08:02:45.658Z,100679.56
2022-09-20T08:05:13.252Z,100674.31
2022-09-20T08:07:41.642Z,100675.16
2022-09-20T08:10:09.884Z,100678.13
2022-09-20T08:15:26.282Z,100665.66
2022-09-20T08:17:55.825Z,100672.84
2022-09-20T08:20:26.170Z,100656.34
2022-09-20T08:23:19.439Z,100655.06
2022-09-20T08:25:43.141Z,100649.16
2022-09-20T08:28:10.641Z,100633.28
2022-09-20T08:30:38.350Z,100645.53
2022-09-20T08:33:07.127Z,100633.69
2022-09-20T08:35:38.273Z,100642.56
2022-09-20T08:41:26.336Z,100628.97
2022-09-20T08:43:57.170Z,100628.25
2022-09-20T08:46:28.909Z,100625.34
2022-09-20T08:48:57.745Z,100636.31
2022-09-20T08:51:28.405Z,100638.22
2022-09-20T08:53:56.043Z,100632.03
2022-09-20T08:56:23.998Z,100630.63
2022-09-20T08:58:52.009Z,100631.63
2022-09-20T09:01:23.678Z,100634.38
2022-09-20T09:03:51.907Z,100627.50
2022-09-20T09:06:20.519Z,100643.16
2022-09-20T09:08:53.774Z,100634.72
2022-09-20T09:11:21.578Z,100630.63
2022-09-20T09:13:53.376Z,100628.03
2022-09-20T09:16:27.231Z,100624.16
2022-09-20T09:18:58.181Z,100621.41
2022-09-20T09:21:29.469Z,100615.81
2022-09-20T09:24:09.969Z,100622.88
2022-09-20T09:26:38.977Z,100624.59
2022-09-20T09:29:23.715Z,100616.25
2022-09-20T09:31:52.792Z,100610.19
2022-09-20T09:34:26.902Z,100606.03
2022-09-20T09:36:55.615Z,100606.28
2022-09-20T09:39:30.630Z,100607.91
2022-09-20T09:42:01.642Z,100604.00
2022-09-20T09:44:30.780Z,100596.38
2022-09-20T09:46:58.300Z,100607.06
2022-09-20T09:49:36.630Z,100611.91
2022-09-20T09:52:24.777Z,100604.13
2022-09-20T09:55:03.059Z,100603.91
2022-09-20T09:57:45.716Z,100604.78
2022-09-20T10:00:22.637Z,100598.81
2022-09-20T10:03:05.580Z,100593.75
2022-09-20T10:06:12.028Z,100590.94
2022-09-20T10:09:08.890Z,100591.47
2022-09-20T10:11:45.564Z,100598.56
2022-09-20T10:14:41.085Z,100601.09
2022-09-20T10:17:38.982Z,100579.97
2022-09-20T10:20:56.047Z,100578.72
2022-09-20T10:24:02.507Z,100582.94
2022-09-20T10:26:39.370Z,100569.47
2022-09-20T10:29:13.460Z,100572.69
2022-09-20T10:32:01.268Z,100579.97
2022-09-20T10:34:48.268Z,100578.41
2022-09-20T10:37:49.060Z,100568.06
2022-09-20T10:40:24.785Z,100557.16
2022-09-20T10:43:15.890Z,100553.91
2022-09-20T10:46:14.429Z,100542.84
2022-09-20T10:48:48.052Z,100548.22
2022-09-20T10:51:48.508Z,100550.75
2022-09-20T10:54:22.071Z,100543.75
2022-09-20T10:56:51.301Z,100535.44
2022-09-20T10:59:44.526Z,100532.75
2022-09-20T11:02:35.484Z,100535.66
2022-09-20T11:05:14.848Z,100530.44
2022-09-20T11:08:06.147Z,100533.94
2022-09-20T11:10:43.172Z,100530.72
2022-09-20T11:13:35.260Z,100522.63
2022-09-20T11:16:07.100Z,100524.34
2022-09-20T11:18:40.606Z,100534.66
2022-09-20T11:21:16.683Z,100536.41
2022-09-20T11:23:51.137Z,100533.06
2022-09-20T11:26:29.210Z,100528.66
2022-09-20T11:29:22.157Z,100523.16
2022-09-20T11:31:50.807Z,100513.03
2022-09-20T11:34:26.036Z,100518.00
2022-09-20T11:36:59.137Z,100523.47
2022-09-20T11:39:41.269Z,100493.06
2022-09-20T11:42:14.527Z,100499.78
2022-09-20T11:44:42.236Z,100492.66
2022-09-20T11:47:53.912Z,100496.94
2022-09-20T11:50:38.588Z,100485.53
2022-09-20T11:53:24.943Z,100482.94
2022-09-20T11:56:02.402Z,100485.66
2022-09-20T11:58:32.019Z,100482.13
2022-09-20T12:00:59.569Z,100479.41
2022-09-20T12:03:38.682Z,100473.66
2022-09-20T12:06:28.623Z,100483.50
2022-09-20T12:08:57.881Z,100485.41
2022-09-20T12:11:36.492Z,100487.53
2022-09-20T12:14:06.303Z,100488.97
2022-09-20T12:16:47.392Z,100491.41
2022-09-20T12:19:21.352Z,100479.00
2022-09-20T12:22:01.104Z,100482.34
2022-09-20T12:24:29.453Z,100487.03
2022-09-20T12:27:01.449Z,100476.84
2022-09-20T12:30:24.234Z,100472.44
2022-09-20T12:32:58.469Z,100474.38
2022-09-20T12:35:44.576Z,100464.53
2022-09-20T12:38:33.306Z,100474.63
2022-09-20T12:41:13.102Z,100491.56
2022-09-20T12:43:53.171Z,100486.41
2022-09-20T12:46:26.509Z,100478.59
2022-09-20T12:49:12.292Z,100485.38
2022-09-20T12:51:58.372Z,100488.09
2022-09-20T12:54:25.884Z,100489.47
2022-09-20T12:56:53.517Z,100482.38
2022-09-20T12:59:23.627Z,100474.84
2022-09-20T13:01:51.302Z,100476.19
2022-09-20T13:04:40.614Z,100479.28
2022-09-20T13:07:33.513Z,100483.38
2022-09-20T13:10:03.735Z,100482.63
2022-09-20T13:12:32.275Z,100483.44
2022-09-20T13:15:01.525Z,100484.56
2022-09-20T13:17:31.932Z,100478.84
2022-09-20T13:19:59.783Z,100478.41
2022-09-20T13:22:31.448Z,100476.97
2022-09-20T13:25:03.627Z,100479.03
2022-09-20T13:27:45.315Z,100475.47
2022-09-20T13:30:27.498Z,100472.94
2022-09-20T13:32:55.478Z,100465.53
2022-09-20T13:35:29.633Z,100473.06
2022-09-20T13:38:02.208Z,100461.03
2022-09-20T13:40:47.620Z,100462.03
2022-09-20T13:43:24.611Z,100455.41
2022-09-20T13:45:56.355Z,100462.22
2022-09-20T13:48:27.898Z,100450.09
2022-09-20T13:50:55.538Z,100449.94
2022-09-20T13:53:40.549Z,100440.22
2022-09-20T13:56:21.204Z,100429.56
2022-09-20T13:58:49.899Z,100422.47
2022-09-20T14:01:21.322Z,100409.94
2022-09-20T14:03:48.993Z,100388.91
2022-09-20T14:06:16.509Z,100378.31
2022-09-20T14:08:52.938Z,100390.25
2022-09-20T14:11:28.161Z,100403.34
2022-09-20T14:13:58.908Z,100416.31
2022-09-20T14:16:49.288Z,100420.34
2022-09-20T14:19:18.557Z,100419.28
2022-09-20T14:21:47.810Z,100418.66
2022-09-20T14:24:15.326Z,100417.22
2022-09-20T14:26:43.171Z,100418.81
2022-09-20T14:29:33.352Z,100417.50
2022-09-20T14:32:14.495Z,100408.41
2022-09-20T14:34:42.228Z,100403.97
2022-09-20T14:37:18.481Z,100411.00
2022-09-20T14:39:50.705Z,100422.63
2022-09-20T14:42:35.341Z,100418.66
2022-09-20T14:45:04.280Z,100429.91
2022-09-20T14:47:39.867Z,100428.91
2022-09-20T14:50:25.454Z,100432.59
2022-09-20T14:53:11.283Z,100435.50
2022-09-20T14:55:42.404Z,100430.06
2022-09-20T14:58:11.781Z,100418.66
2022-09-20T15:00:48.539Z,100424.38
2022-09-20T15:03:16.731Z,100426.13
2022-09-20T15:05:44.367Z,100423.22
2022-09-20T15:08:12.387Z,100408.25
2022-09-20T15:10:39.883Z,100414.66
2022-09-20T15:13:10.685Z,100421.69
2022-09-20T15:15:38.194Z,100418.38
2022-09-20T15:18:11.332Z,100416.91
2022-09-20T15:20:39.212Z,100421.81
2022-09-20T15:23:06.664Z,100417.81
2022-09-20T15:25:34.585Z,100422.94
2022-09-20T15:28:02.232Z,100429.94
2022-09-20T15:30:30.528Z,100423.22
2022-09-20T15:33:02.294Z,100419.03
2022-09-20T15:35:30.784Z,100426.84
2022-09-20T15:37:58.493Z,100425.22
2022-09-20T15:40:25.987Z,100420.41
2022-09-20T15:42:58.276Z,100426.81
2022-09-20T15:45:27.138Z,100421.16
2022-09-20T15:47:57.921Z,100425.63
2022-09-20T15:50:25.765Z,100423.75
2022-09-20T15:52:59.755Z,100428.88
2022-09-20T15:55:27.582Z,100428.25
2022-09-20T15:57:55.065Z,100431.44
2022-09-20T16:00:22.703Z,100424.31
2022-09-20T16:02:50.592Z,100417.78
2022-09-20T16:05:18.220Z,100411.06
2022-09-20T16:07:47.307Z,100414.44
2022-09-20T16:10:14.899Z,100422.72
2022-09-20T16:12:45.032Z,100422.91
2022-09-20T16:15:12.598Z,100430.97
2022-09-20T16:17:58.656Z,100424.44
2022-09-20T16:20:26.193Z,100429.13
2022-09-20T16:22:53.756Z,100427.44
2022-09-20T16:25:21.605Z,100429.13
2022-09-20T16:27:49.077Z,100427.84
2022-09-20T16:30:16.703Z,100427.25
2022-09-20T16:32:44.226Z,100430.41
2022-09-20T16:35:11.917Z,100430.00
2022-09-20T16:37:39.977Z,100435.09
2022-09-20T16:40:10.848Z,100429.00
2022-09-20T16:42:39.424Z,100426.69
2022-09-20T16:45:07.532Z,100438.13
2022-09-20T16:47:37.946Z,100439.41
2022-09-20T16:50:05.963Z,100433.72
2022-09-20T16:52:34.064Z,100432.44
2022-09-20T16:55:03.211Z,100426.16
2022-09-20T16:57:32.137Z,100442.41
2022-09-20T16:59:59.802Z,100448.72
2022-09-20T17:02:27.316Z,100436.50
2022-09-20T17:04:54.931Z,100443.50
2022-09-20T17:07:24.437Z,100443.91
2022-09-20T17:09:52.201Z,100447.09
2022-09-20T17:12:22.657Z,100454.47
2022-09-20T17:14:50.256Z,100449.41
2022-09-20T17:17:18.128Z,100447.31
2022-09-20T17:19:45.695Z,100454.06
2022-09-20T17:22:15.773Z,100445.44
2022-09-20T17:24:43.339Z,100450.69
2022-09-20T17:27:10.985Z,100444.78
2022-09-20T17:29:40.024Z,100440.78
2022-09-20T17:32:07.748Z,100446.06
2022-09-20T17:34:35.702Z,100443.53
2022-09-20T17:37:03.577Z,100453.66
2022-09-20T17:39:31.180Z,100443.97
2022-09-20T17:41:58.763Z,100442.91
2022-09-20T17:44:26.369Z,100447.72
2022-09-20T17:46:54.396Z,100446.47
2022-09-20T17:49:22.549Z,100443.72
2022-09-20T17:51:52.744Z,100440.34
2022-09-20T17:54:20.648Z,100441.81
2022-09-20T17:56:51.898Z,100444.53
2022-09-20T17:59:20.297Z,100439.88
2022-09-20T18:01:49.822Z,100455.25
2022-09-20T18:04:17.859Z,100446.38
2022-09-20T18:06:46.845Z,100444.66
2022-09-20T18:09:16.974Z,100442.09
2022-09-20T18:11:46.577Z,100437.47
2022-09-20T18:14:14.244Z,100443.13
2022-09-20T18:16:44.306Z,100443.34
2022-09-20T18:19:11.901Z,100449.22
2022-09-20T18:21:40.945Z,100451.91
2022-09-20T18:24:12.267Z,100447.06
2022-09-20T18:26:40.612Z,100444.09
2022-09-20T18:29:16.812Z,100439.22
2022-09-20T18:31:52.320Z,100436.72
2022-09-20T18:34:21.506Z,100435.66
2022-09-20T18:36:55.077Z,100433.97
2022-09-20T18:39:27.242Z,100424.47
2022-09-20T18:41:55.127Z,100428.03
2022-09-20T18:44:22.910Z,100425.91
2022-09-20T18:46:52.437Z,100422.53
2022-09-20T18:49:21.659Z,100424.66
2022-09-20T18:51:49.450Z,100419.16
2022-09-20T18:54:17.116Z,100414.69
2022-09-20T18:56:46.146Z,100414.69
2022-09-20T18:59:18.585Z,100424.13
2022-09-20T19:01:58.173Z,100423.28
2022-09-20T19:04:44.070Z,100430.00
2022-09-20T19:07:45.292Z,100443.41
2022-09-20T19:10:24.981Z,100446.94
2022-09-20T19:13:10.687Z,100443.09
2022-09-20T19:15:43.698Z,100437.47
2022-09-20T19:18:43.819Z,100434.72
2022-09-20T19:21:39.297Z,100435.75
2022-09-20T19:24:21.861Z,100427.56
2022-09-20T19:26:49.789Z,100421.91
2022-09-20T19:29:18.729Z,100426.53
2022-09-20T19:31:50.632Z,100421.91
2022-09-20T19:34:22.443Z,100426.72
2022-09-20T19:37:24.300Z,100428.63
2022-09-20T19:40:03.972Z,100429.66
2022-09-20T19:42:39.474Z,100422.50
2022-09-20T19:45:25.544Z,100421.84
2022-09-20T19:48:28.423Z,100415.53
2022-09-20T19:50:56.659Z,100424.34
2022-09-20T19:53:28.879Z,100425.97
2022-09-20T19:56:02.190Z,100425.09
2022-09-20T19:58:30.201Z,100437.00
2022-09-20T20:00:58.507Z,100444.69
2022-09-20T20:03:27.619Z,100445.00
2022-09-20T20:06:07.841Z,100441.56
2022-09-20T20:08:48.943Z,100445.66
2022-09-20T20:11:48.995Z,100450.41
2022-09-20T20:14:42.268Z,100446.09
2022-09-20T20:17:15.407Z,100449.41
2022-09-20T20:19:54.719Z,100437.00
2022-09-20T20:22:52.534Z,100429.22
2022-09-20T20:25:41.872Z,100424.59
2022-09-20T20:28:09.382Z,100428.88
2022-09-20T20:30:37.365Z,100434.91
2022-09-20T20:33:06.108Z,100442.63
2022-09-20T20:35:33.628Z,100446.00
2022-09-20T20:38:01.193Z,100446.84
2022-09-20T20:40:28.822Z,100437.00
2022-09-20T20:43:02.165Z,100431.13
2022-09-20T20:45:29.958Z,100426.38
2022-09-20T20:47:58.750Z,100427.59
2022-09-20T20:50:27.276Z,100427.13
2022-09-20T20:52:55.800Z,100436.91
2022-09-20T20:55:23.875Z,100427.88
2022-09-20T20:57:58.540Z,100431.66
2022-09-20T21:00:26.466Z,100427.59
2022-09-20T21:03:00.726Z,100436.38
2022-09-20T21:05:28.693Z,100429.25
2022-09-20T21:07:58.028Z,100434.88
2022-09-20T21:10:25.729Z,100432.53
2022-09-20T21:12:56.250Z,100428.28
2022-09-20T21:15:23.881Z,100429.94
2022-09-20T21:17:52.482Z,100430.47
2022-09-20T21:20:20.498Z,100434.63
2022-09-20T21:22:48.018Z,100432.47
2022-09-20T21:25:16.437Z,100435.22
2022-09-20T21:27:43.936Z,100436.22
2022-09-20T21:30:12.021Z,100430.78
2022-09-20T21:32:39.601Z,100423.25
2022-09-20T21:35:07.564Z,100426.38
2022-09-20T21:37:35.432Z,100424.78
2022-09-20T21:40:03.045Z,100425.44
2022-09-20T21:42:30.785Z,100416.78
2022-09-20T21:44:58.412Z,100424.84
2022-09-20T21:47:25.919Z,100420.06
2022-09-20T21:49:53.399Z,100423.91
2022-09-20T21:52:20.951Z,100422.75
2022-09-20T21:54:48.485Z,100424.00
2022-09-20T21:57:16.045Z,100428.69
2022-09-20T21:59:43.794Z,100417.00
2022-09-20T22:02:11.384Z,100409.00
2022-09-20T22:04:39.308Z,100412.59
2022-09-20T22:07:06.825Z,100415.81
2022-09-20T22:09:34.593Z,100413.88
2022-09-20T22:12:02.334Z,100412.28
2022-09-20T22:14:30.293Z,100423.91
2022-09-20T22:16:59.530Z,100424.41
2022-09-20T22:19:27.658Z,100432.00
2022-09-20T22:21:55.640Z,100450.06
2022-09-20T22:24:23.395Z,100462.69
2022-09-20T22:26:51.323Z,100454.75
2022-09-20T22:29:18.973Z,100464.88
2022-09-20T22:31:47.404Z,100464.88
2022-09-20T22:34:19.166Z,100475.00
2022-09-20T22:36:46.965Z,100472.91
2022-09-20T22:39:14.777Z,100470.38
2022-09-20T22:41:43.209Z,100462.19
2022-09-20T22:44:10.939Z,100472.50
2022-09-20T22:46:40.394Z,100465.75
2022-09-20T22:49:08.482Z,100472.00
2022-09-20T22:51:36.256Z,100470.75
2022-09-20T22:54:09.054Z,100468.53
2022-09-20T22:56:36.971Z,100464.28
2022-09-20T22:59:09.416Z,100474.72
2022-09-20T23:01:47.951Z,100474.25
2022-09-20T23:04:17.862Z,100475.78
2022-09-20T23:06:51.958Z,100482.06
2022-09-20T23:09:19.671Z,100485.75
2022-09-20T23:11:47.533Z,100483.34
2022-09-20T23:14:17.108Z,100483.69
2022-09-20T23:16:44.676Z,100489.72
2022-09-20T23:19:12.447Z,100492.75
2022-09-20T23:21:40.753Z,100498.88
2022-09-20T23:24:10.419Z,100504.34
2022-09-20T23:26:38.463Z,100511.19
2022-09-20T23:29:12.528Z,100507.19
2022-09-20T23:31:45.873Z,100517.25
2022-09-20T23:34:14.669Z,100509.25
2022-09-20T23:36:42.699Z,100512.16
2022-09-20T23:39:10.530Z,100513.13
2022-09-20T23:41:41.387Z,100513.22
2022-09-20T23:44:10.407Z,100511.88
2022-09-20T23:46:38.768Z,100509.78
2022-09-20T23:49:07.171Z,100511.75
2022-09-20T23:51:35.668Z,100516.78
2022-09-20T23:54:03.539Z,100517.44
2022-09-20T23:56:32.167Z,100522.31
2022-09-20T23:58:59.851Z,100516.47
